createdAt,value
2019-01-24T00:01:47.938Z,98.33
2019-01-24T00:04:19.927Z,104.30
2019-01-24T00:06:51.178Z,117.57
2019-01-24T00:09:23.285Z,101.37
2019-01-24T00:11:55.513Z,102.93
2019-01-24T00:14:27.793Z,104.67
2019-01-24T00:17:00.291Z,103.00
2019-01-24T00:19:32.518Z,97.03
2019-01-24T00:22:04.662Z,99.40
2019-01-24T00:24:36.861Z,94.40
2019-01-24T00:29:42.021Z,96.80
2019-01-24T00:32:14.255Z,97.20
2019-01-24T00:34:47.626Z,81.90
2019-01-24T00:37:18.660Z,119.57
2019-01-24T00:39:52.459Z,89.57
2019-01-24T00:42:23.551Z,82.67
2019-01-24T00:44:56.764Z,100.73
2019-01-24T00:47:28.099Z,89.03
2019-01-24T00:50:01.472Z,90.27
2019-01-24T00:52:32.701Z,83.13
2019-01-24T00:55:07.107Z,78.27
2019-01-24T00:57:38.400Z,81.50
2019-01-24T01:00:19.347Z,83.70
2019-01-24T01:02:50.492Z,76.60
2019-01-24T01:05:24.722Z,70.60
2019-01-24T01:07:55.888Z,77.70
2019-01-24T01:10:29.045Z,62.70
2019-01-24T01:13:00.191Z,74.33
2019-01-24T01:15:33.614Z,59.80
2019-01-24T01:18:04.721Z,88.60
2019-01-24T01:20:37.858Z,63.23
2019-01-24T01:23:09.219Z,53.60
2019-01-24T01:25:42.425Z,46.93
2019-01-24T01:28:13.783Z,55.23
2019-01-24T01:30:47.008Z,49.97
2019-01-24T01:33:18.137Z,51.80
2019-01-24T01:35:51.476Z,51.30
2019-01-24T01:38:22.669Z,56.40
2019-01-24T01:40:55.774Z,51.80
2019-01-24T01:43:38.206Z,53.50
2019-01-24T01:46:12.489Z,53.17
2019-01-24T01:48:46.867Z,52.80
2019-01-24T01:51:20.192Z,63.63
2019-01-24T01:53:51.428Z,58.27
2019-01-24T01:56:24.772Z,55.37
2019-01-24T01:58:55.975Z,57.07
2019-01-24T02:01:29.163Z,56.67
2019-01-24T02:04:00.303Z,55.40
2019-01-24T02:06:33.654Z,57.33
2019-01-24T02:09:05.848Z,51.03
2019-01-24T02:11:39.201Z,55.70
2019-01-24T02:14:11.538Z,51.27
2019-01-24T02:16:44.839Z,57.90
2019-01-24T02:19:16.082Z,54.00
2019-01-24T02:21:49.476Z,53.63
2019-01-24T02:24:20.989Z,58.83
2019-01-24T02:26:54.235Z,44.10
2019-01-24T02:29:25.579Z,58.30
2019-01-24T02:31:59.555Z,60.60
2019-01-24T02:34:31.418Z,57.00
2019-01-24T02:37:04.928Z,57.13
2019-01-24T02:39:36.280Z,63.03
2019-01-24T02:42:09.678Z,69.00
2019-01-24T02:44:43.101Z,62.43
2019-01-24T02:47:16.393Z,68.57
2019-01-24T02:49:47.725Z,56.03
2019-01-24T02:52:22.219Z,63.87
2019-01-24T02:54:56.647Z,55.60
2019-01-24T02:57:30.010Z,69.33
2019-01-24T03:00:01.372Z,67.13
2019-01-24T03:02:34.975Z,78.40
2019-01-24T03:05:07.126Z,66.83
2019-01-24T03:07:40.448Z,65.47
2019-01-24T03:10:12.119Z,62.20
2019-01-24T03:12:45.912Z,66.13
2019-01-24T03:15:18.121Z,64.10
2019-01-24T03:17:51.469Z,62.53
2019-01-24T03:20:22.809Z,64.47
2019-01-24T03:22:56.061Z,59.23
2019-01-24T03:25:27.482Z,70.93
2019-01-24T03:28:00.956Z,73.93
2019-01-24T03:30:32.435Z,67.97
2019-01-24T03:33:05.787Z,65.07
2019-01-24T03:35:38.070Z,64.40
2019-01-24T03:38:11.267Z,61.60
2019-01-24T03:40:42.691Z,53.17
2019-01-24T03:43:16.000Z,61.80
2019-01-24T03:45:48.570Z,69.43
2019-01-24T03:48:20.763Z,65.83
2019-01-24T03:50:53.214Z,61.43
2019-01-24T03:53:25.572Z,52.10
2019-01-24T03:55:57.655Z,56.17
2019-01-24T03:58:30.089Z,53.67
2019-01-24T04:01:02.449Z,51.00
2019-01-24T04:03:34.734Z,43.77
2019-01-24T04:06:06.228Z,50.43
2019-01-24T04:08:39.443Z,47.90
2019-01-24T04:11:10.942Z,53.27
2019-01-24T04:13:44.391Z,52.60
2019-01-24T04:16:15.592Z,49.13
2019-01-24T04:18:48.836Z,49.03
2019-01-24T04:21:20.345Z,47.47
2019-01-24T04:23:53.565Z,44.33
2019-01-24T04:26:24.868Z,48.00
2019-01-24T04:28:58.362Z,54.40
2019-01-24T04:31:29.634Z,47.73
2019-01-24T04:34:03.011Z,51.20
2019-01-24T04:36:34.502Z,49.33
2019-01-24T04:39:09.531Z,46.47
2019-01-24T04:41:41.134Z,42.90
2019-01-24T04:44:14.377Z,46.47
2019-01-24T04:46:45.669Z,49.37
2019-01-24T04:49:19.157Z,54.00
2019-01-24T04:51:50.424Z,53.17
2019-01-24T04:54:23.893Z,55.73
2019-01-24T04:56:55.139Z,45.00
2019-01-24T04:59:28.437Z,55.37
2019-01-24T05:01:59.705Z,41.40
2019-01-24T05:04:33.104Z,56.83
2019-01-24T05:07:04.446Z,51.00
2019-01-24T05:09:37.752Z,45.67
2019-01-24T05:12:08.970Z,50.30
2019-01-24T05:14:42.198Z,51.67
2019-01-24T05:17:13.233Z,49.93
2019-01-24T05:19:46.528Z,52.70
2019-01-24T05:22:17.883Z,53.37
2019-01-24T05:24:51.089Z,48.07
2019-01-24T05:27:22.403Z,51.43
2019-01-24T05:29:55.629Z,50.13
2019-01-24T05:32:26.921Z,52.27
2019-01-24T05:35:00.315Z,51.90
2019-01-24T05:37:31.978Z,43.93
2019-01-24T05:40:05.076Z,43.93
2019-01-24T05:42:36.355Z,43.93
2019-01-24T05:45:10.765Z,42.00
2019-01-24T05:47:45.069Z,46.53
2019-01-24T05:50:18.590Z,43.63
2019-01-24T05:52:49.804Z,37.70
2019-01-24T05:55:23.459Z,40.70
2019-01-24T05:57:54.850Z,38.40
2019-01-24T06:00:37.492Z,53.83
2019-01-24T06:03:08.699Z,37.53
2019-01-24T06:05:42.110Z,46.93
2019-01-24T06:08:13.613Z,43.40
2019-01-24T06:10:46.977Z,45.00
2019-01-24T06:13:18.484Z,50.00
2019-01-24T06:15:52.296Z,45.40
2019-01-24T06:18:23.914Z,42.10
2019-01-24T06:20:57.202Z,57.70
2019-01-24T06:23:28.588Z,38.10
2019-01-24T06:26:02.021Z,43.87
2019-01-24T06:28:33.334Z,37.13
2019-01-24T06:31:06.926Z,41.93
2019-01-24T06:33:38.475Z,37.43
2019-01-24T06:36:11.849Z,31.70
2019-01-24T06:38:43.209Z,41.10
2019-01-24T06:41:16.525Z,38.77
2019-01-24T06:43:47.810Z,38.37
2019-01-24T06:46:22.502Z,30.70
2019-01-24T06:48:56.954Z,36.60
2019-01-24T06:51:30.580Z,40.33
2019-01-24T06:54:02.155Z,34.43
2019-01-24T06:56:35.640Z,43.70
2019-01-24T06:59:06.820Z,34.30
2019-01-24T07:01:40.066Z,37.60
2019-01-24T07:04:12.326Z,50.07
2019-01-24T07:06:45.762Z,30.33
2019-01-24T07:09:17.068Z,38.20
2019-01-24T07:11:50.362Z,45.07
2019-01-24T07:14:21.469Z,45.53
2019-01-24T07:16:54.902Z,42.00
2019-01-24T07:19:25.996Z,38.03
2019-01-24T07:21:59.368Z,36.77
2019-01-24T07:24:32.668Z,35.53
2019-01-24T07:27:06.882Z,32.27
2019-01-24T07:29:38.839Z,36.20
2019-01-24T07:32:12.877Z,167.47
2019-01-24T07:34:45.249Z,133.40
2019-01-24T07:37:19.084Z,81.90
2019-01-24T07:40:09.629Z,88.20
2019-01-24T07:42:43.925Z,69.90
2019-01-24T07:45:22.002Z,90.90
2019-01-24T07:47:54.663Z,84.47
2019-01-24T07:50:27.891Z,158.93
2019-01-24T07:53:01.344Z,79.67
2019-01-24T07:55:34.381Z,93.10
2019-01-24T07:58:07.722Z,205.80
2019-01-24T08:00:40.259Z,243.33
2019-01-24T08:03:12.559Z,110.10
2019-01-24T08:05:44.931Z,373.00
2019-01-24T08:08:17.096Z,88.70
2019-01-24T08:10:51.947Z,205.60
2019-01-24T08:13:25.301Z,363.97
2019-01-24T08:15:56.792Z,98.43
2019-01-24T08:18:30.076Z,107.33
2019-01-24T08:21:01.294Z,87.77
2019-01-24T08:23:34.578Z,203.83
2019-01-24T08:26:06.287Z,45.17
2019-01-24T08:28:39.809Z,102.50
2019-01-24T08:31:11.131Z,66.17
2019-01-24T08:33:44.527Z,69.87
2019-01-24T08:36:15.823Z,85.93
2019-01-24T08:38:49.023Z,48.93
2019-01-24T08:41:23.471Z,49.47
2019-01-24T08:43:56.653Z,60.40
2019-01-24T08:46:29.089Z,52.73
2019-01-24T08:49:01.754Z,74.50
2019-01-24T08:51:34.065Z,101.80
2019-01-24T08:54:07.276Z,37.40
2019-01-24T08:56:38.507Z,95.77
2019-01-24T08:59:11.774Z,110.73
2019-01-24T09:01:43.243Z,85.87
2019-01-24T09:04:16.617Z,49.40
2019-01-24T09:06:47.828Z,113.87
2019-01-24T09:09:21.019Z,72.00
2019-01-24T09:11:55.613Z,92.20
2019-01-24T09:14:28.988Z,90.40
2019-01-24T09:17:00.134Z,59.47
2019-01-24T09:19:33.385Z,112.90
2019-01-24T09:22:04.698Z,54.47
2019-01-24T09:24:38.046Z,66.10
2019-01-24T09:27:09.398Z,57.17
2019-01-24T09:29:42.798Z,41.27
2019-01-24T09:32:14.071Z,68.47
2019-01-24T09:34:47.393Z,62.23
2019-01-24T09:37:19.007Z,52.23
2019-01-24T09:39:52.293Z,64.03
2019-01-24T09:42:27.260Z,35.50
2019-01-24T09:45:00.212Z,43.23
2019-01-24T09:47:32.895Z,42.93
2019-01-24T09:50:05.866Z,34.23
2019-01-24T09:52:38.034Z,58.90
2019-01-24T09:55:10.567Z,42.43
2019-01-24T09:57:43.067Z,52.37
2019-01-24T10:00:19.206Z,38.80
2019-01-24T10:02:51.903Z,30.63
2019-01-24T10:05:24.291Z,27.90
2019-01-24T10:07:56.656Z,28.70
2019-01-24T10:10:29.198Z,28.63
2019-01-24T10:13:03.608Z,26.40
2019-01-24T10:15:37.063Z,21.50
2019-01-24T10:18:08.196Z,19.27
2019-01-24T10:20:41.500Z,25.00
2019-01-24T10:23:12.857Z,21.77
2019-01-24T10:25:46.257Z,18.30
2019-01-24T10:28:17.427Z,15.10
2019-01-24T10:30:50.826Z,27.43
2019-01-24T10:33:22.644Z,27.07
2019-01-24T10:35:55.946Z,22.43
2019-01-24T10:38:27.168Z,23.60
2019-01-24T10:41:00.678Z,21.17
2019-01-24T10:43:35.750Z,26.70
2019-01-24T10:46:09.360Z,19.90
2019-01-24T10:48:40.822Z,15.60
2019-01-24T10:51:14.240Z,18.17
2019-01-24T10:53:45.554Z,15.43
2019-01-24T10:56:18.992Z,21.33
2019-01-24T10:58:50.420Z,15.93
2019-01-24T11:01:23.953Z,16.37
2019-01-24T11:03:55.102Z,18.60
2019-01-24T11:06:28.532Z,19.63
2019-01-24T11:09:09.982Z,22.77
2019-01-24T11:11:43.251Z,18.90
2019-01-24T11:14:15.455Z,17.50
2019-01-24T11:16:47.685Z,23.33
2019-01-24T11:19:19.855Z,20.43
2019-01-24T11:21:52.249Z,22.53
2019-01-24T11:24:24.769Z,27.03
2019-01-24T11:26:57.156Z,25.97
2019-01-24T11:29:29.280Z,30.83
2019-01-24T11:32:01.616Z,22.07
2019-01-24T11:34:33.877Z,20.37
2019-01-24T11:37:06.306Z,21.67
2019-01-24T11:39:38.507Z,18.73
2019-01-24T11:42:10.896Z,24.10
2019-01-24T11:44:46.005Z,18.70
2019-01-24T11:47:19.317Z,21.63
2019-01-24T11:49:50.559Z,30.40
2019-01-24T11:52:23.895Z,26.80
2019-01-24T11:54:55.195Z,35.53
2019-01-24T11:57:28.866Z,29.53
2019-01-24T12:00:00.179Z,29.97
2019-01-24T12:02:39.639Z,28.47
2019-01-24T12:05:07.075Z,36.73
2019-01-24T12:07:40.610Z,42.30
2019-01-24T12:10:13.898Z,30.47
2019-01-24T12:12:47.315Z,32.87
2019-01-24T12:15:20.226Z,37.30
2019-01-24T12:17:52.699Z,40.70
2019-01-24T12:20:25.187Z,54.03
2019-01-24T12:22:57.677Z,52.97
2019-01-24T12:25:30.263Z,62.90
2019-01-24T12:28:02.622Z,57.30
2019-01-24T12:30:35.448Z,64.90
2019-01-24T12:33:08.222Z,78.03
2019-01-24T12:35:40.586Z,74.47
2019-01-24T12:38:12.917Z,63.17
2019-01-24T12:40:45.152Z,67.90
2019-01-24T12:43:17.456Z,62.00
2019-01-24T12:45:51.998Z,61.10
2019-01-24T12:48:25.887Z,53.13
2019-01-24T12:50:57.493Z,49.97
2019-01-24T12:53:30.704Z,45.73
2019-01-24T12:56:01.975Z,46.83
2019-01-24T12:58:36.227Z,45.03
2019-01-24T13:01:07.515Z,51.93
2019-01-24T13:03:40.901Z,51.17
2019-01-24T13:06:12.212Z,44.97
2019-01-24T13:08:45.471Z,56.97
2019-01-24T13:11:16.753Z,49.10
2019-01-24T13:13:50.170Z,53.23
2019-01-24T13:16:22.448Z,55.47
2019-01-24T13:18:54.711Z,59.60
2019-01-24T13:21:26.998Z,48.63
2019-01-24T13:23:59.327Z,55.03
2019-01-24T13:26:31.660Z,48.83
2019-01-24T13:29:04.189Z,51.70
2019-01-24T13:31:36.468Z,52.37
2019-01-24T13:34:08.871Z,62.70
2019-01-24T13:36:41.132Z,54.60
2019-01-24T13:39:13.698Z,49.23
2019-01-24T13:41:45.858Z,55.40
2019-01-24T13:44:19.207Z,50.67
2019-01-24T13:46:53.468Z,56.23
2019-01-24T13:49:26.889Z,58.07
2019-01-24T13:51:58.160Z,56.00
2019-01-24T13:54:31.605Z,57.03
2019-01-24T13:57:02.745Z,62.20
2019-01-24T13:59:36.030Z,55.40
2019-01-24T14:02:07.309Z,65.70
2019-01-24T14:04:42.789Z,59.13
2019-01-24T14:07:14.138Z,61.30
2019-01-24T14:09:47.450Z,68.10
2019-01-24T14:12:18.730Z,69.87
2019-01-24T14:14:52.049Z,56.83
2019-01-24T14:17:24.297Z,58.63
2019-01-24T14:19:56.558Z,58.17
2019-01-24T14:22:48.851Z,66.20
2019-01-24T14:25:22.521Z,68.20
2019-01-24T14:27:53.940Z,64.43
2019-01-24T14:30:27.500Z,61.90
2019-01-24T14:32:58.890Z,60.17
2019-01-24T14:35:33.493Z,66.60
2019-01-24T14:38:04.764Z,59.40
2019-01-24T14:40:38.383Z,56.87
2019-01-24T14:43:09.768Z,64.87
2019-01-24T14:45:44.027Z,62.90
2019-01-24T14:48:18.540Z,79.53
2019-01-24T14:50:51.700Z,72.30
2019-01-24T14:53:23.178Z,64.70
2019-01-24T14:55:57.606Z,73.23
2019-01-24T14:58:31.736Z,82.20
2019-01-24T15:01:10.178Z,70.13
2019-01-24T15:03:41.477Z,58.83
2019-01-24T15:06:14.862Z,63.77
2019-01-24T15:08:46.546Z,78.03
2019-01-24T15:11:43.218Z,66.60
2019-01-24T15:14:15.621Z,82.53
2019-01-24T15:16:47.818Z,78.27
2019-01-24T15:19:20.097Z,60.73
2019-01-24T15:21:52.241Z,71.70
2019-01-24T15:24:24.627Z,64.53
2019-01-24T15:26:56.798Z,66.60
2019-01-24T15:29:29.014Z,85.83
2019-01-24T15:32:01.160Z,83.63
2019-01-24T15:34:33.718Z,92.03
2019-01-24T15:37:05.889Z,85.90
2019-01-24T15:39:38.501Z,99.00
2019-01-24T15:42:10.690Z,72.90
2019-01-24T15:44:45.824Z,105.43
2019-01-24T15:47:19.103Z,90.53
2019-01-24T15:49:50.409Z,98.10
2019-01-24T15:52:23.791Z,85.30
2019-01-24T15:54:54.905Z,82.10
2019-01-24T15:57:28.282Z,78.07
2019-01-24T15:59:59.450Z,86.43
2019-01-24T16:02:34.031Z,86.00
2019-01-24T16:05:06.546Z,96.97
2019-01-24T16:07:39.929Z,145.80
2019-01-24T16:10:12.051Z,116.93
2019-01-24T16:12:46.322Z,102.10
2019-01-24T16:15:19.955Z,98.43
2019-01-24T16:17:53.499Z,114.70
2019-01-24T16:20:26.036Z,125.20
2019-01-24T16:23:00.873Z,92.87
2019-01-24T16:25:32.471Z,112.10
2019-01-24T16:28:05.604Z,101.73
2019-01-24T16:30:37.265Z,100.40
2019-01-24T16:33:11.130Z,96.73
2019-01-24T16:35:42.432Z,93.67
2019-01-24T16:38:16.155Z,95.73
2019-01-24T16:40:47.328Z,104.53
2019-01-24T16:43:20.677Z,113.87
2019-01-24T16:45:51.961Z,242.37
2019-01-24T16:48:26.397Z,201.53
2019-01-24T16:51:00.821Z,466.67
2019-01-24T16:53:34.195Z,165.73
2019-01-24T16:56:05.828Z,161.77
2019-01-24T16:58:39.163Z,131.23
2019-01-24T17:01:18.151Z,140.80
2019-01-24T17:03:51.485Z,139.13
2019-01-24T17:06:23.071Z,132.60
2019-01-24T17:08:57.148Z,131.77
2019-01-24T17:11:28.580Z,123.27
2019-01-24T17:14:01.834Z,127.50
2019-01-24T17:16:33.198Z,121.83
2019-01-24T17:19:06.681Z,135.67
2019-01-24T17:21:38.135Z,145.90
2019-01-24T17:24:11.521Z,142.30
2019-01-24T17:26:42.731Z,120.10
2019-01-24T17:29:16.040Z,99.20
2019-01-24T17:31:50.040Z,105.80
2019-01-24T17:34:23.189Z,482.33
2019-01-24T17:36:54.334Z,215.27
2019-01-24T17:39:27.440Z,109.60
2019-01-24T17:41:59.024Z,99.33
2019-01-24T17:44:32.519Z,112.60
2019-01-24T17:47:03.802Z,85.07
2019-01-24T17:49:37.388Z,94.40
2019-01-24T17:52:08.865Z,105.93
2019-01-24T17:54:42.196Z,95.07
2019-01-24T17:57:13.469Z,112.13
2019-01-24T17:59:46.908Z,111.97
2019-01-24T18:02:18.305Z,102.63
2019-01-24T18:04:51.730Z,99.60
2019-01-24T18:07:23.256Z,96.07
2019-01-24T18:09:56.701Z,119.97
2019-01-24T18:12:28.086Z,97.90
2019-01-24T18:15:01.828Z,97.40
2019-01-24T18:17:33.413Z,109.67
2019-01-24T18:20:07.764Z,111.20
2019-01-24T18:22:39.082Z,115.47
2019-01-24T18:25:12.443Z,110.10
2019-01-24T18:27:44.027Z,108.00
2019-01-24T18:30:18.656Z,104.53
2019-01-24T18:32:50.040Z,75.97
2019-01-24T18:35:23.379Z,83.93
2019-01-24T18:37:54.686Z,89.87
2019-01-24T18:40:28.893Z,81.80
2019-01-24T18:43:00.246Z,108.30
2019-01-24T18:45:41.605Z,89.57
2019-01-24T18:48:13.891Z,94.17
2019-01-24T18:50:46.270Z,101.20
2019-01-24T18:53:18.715Z,89.80
2019-01-24T18:55:50.886Z,98.10
2019-01-24T18:58:23.058Z,94.10
2019-01-24T19:00:55.371Z,85.73
2019-01-24T19:03:27.785Z,76.43
2019-01-24T19:06:00.189Z,84.33
2019-01-24T19:08:32.677Z,82.40
2019-01-24T19:11:04.744Z,75.23
2019-01-24T19:13:37.909Z,84.30
2019-01-24T19:16:11.427Z,80.17
2019-01-24T19:18:43.079Z,69.30
2019-01-24T19:21:16.980Z,61.10
2019-01-24T19:23:48.320Z,63.93
2019-01-24T19:26:21.831Z,67.93
2019-01-24T19:28:53.290Z,73.33
2019-01-24T19:31:26.349Z,66.83
2019-01-24T19:33:57.673Z,69.70
2019-01-24T19:36:30.934Z,66.80
2019-01-24T19:39:02.540Z,72.13
2019-01-24T19:41:37.558Z,66.83
2019-01-24T19:44:15.442Z,79.20
2019-01-24T19:46:44.096Z,70.13
2019-01-24T19:49:16.435Z,81.67
2019-01-24T19:51:52.160Z,82.37
2019-01-24T19:54:24.596Z,75.17
2019-01-24T19:56:56.966Z,73.63
2019-01-24T19:59:29.257Z,74.07
2019-01-24T20:02:01.802Z,71.87
2019-01-24T20:04:34.215Z,92.07
2019-01-24T20:07:06.497Z,77.20
2019-01-24T20:09:39.042Z,75.90
2019-01-24T20:12:11.275Z,83.70
2019-01-24T20:14:43.516Z,86.63
2019-01-24T20:17:16.426Z,79.27
2019-01-24T20:19:47.783Z,73.47
2019-01-24T20:22:21.428Z,80.13
2019-01-24T20:24:52.892Z,82.97
2019-01-24T20:27:26.294Z,79.20
2019-01-24T20:29:57.615Z,72.83
2019-01-24T20:32:31.249Z,66.43
2019-01-24T20:35:02.632Z,81.53
2019-01-24T20:37:36.023Z,71.30
2019-01-24T20:40:07.527Z,86.90
2019-01-24T20:42:41.015Z,75.47
2019-01-24T20:45:12.310Z,80.33
2019-01-24T20:47:46.063Z,80.03
2019-01-24T20:50:20.684Z,78.37
2019-01-24T20:52:54.133Z,84.60
2019-01-24T20:55:25.541Z,80.27
2019-01-24T20:57:59.922Z,71.10
2019-01-24T21:00:34.358Z,70.27
2019-01-24T21:03:08.366Z,73.60
2019-01-24T21:05:39.564Z,75.37
2019-01-24T21:08:12.845Z,65.17
2019-01-24T21:10:44.257Z,65.67
2019-01-24T21:13:17.595Z,60.53
2019-01-24T21:15:49.034Z,64.37
2019-01-24T21:18:22.523Z,64.43
2019-01-24T21:20:55.090Z,55.67
2019-01-24T21:23:27.715Z,59.60
2019-01-24T21:26:00.161Z,58.00
2019-01-24T21:28:32.751Z,46.30
2019-01-24T21:31:04.847Z,56.80
2019-01-24T21:33:37.312Z,57.07
2019-01-24T21:36:09.970Z,53.73
2019-01-24T21:38:42.552Z,53.37
2019-01-24T21:41:15.143Z,46.50
2019-01-24T21:43:47.264Z,48.03
2019-01-24T21:46:19.484Z,44.13
2019-01-24T21:48:51.828Z,54.17
2019-01-24T21:51:26.229Z,49.63
2019-01-24T21:53:59.582Z,51.53
2019-01-24T21:56:30.970Z,44.80
2019-01-24T21:59:04.486Z,47.07
2019-01-24T22:01:35.923Z,46.23
2019-01-24T22:04:09.309Z,53.63
2019-01-24T22:06:40.763Z,47.27
2019-01-24T22:09:14.104Z,54.90
2019-01-24T22:11:45.885Z,45.53
2019-01-24T22:14:19.374Z,47.27
2019-01-24T22:16:50.694Z,51.07
2019-01-24T22:19:24.220Z,55.03
2019-01-24T22:21:56.372Z,49.60
2019-01-24T22:24:28.636Z,48.23
2019-01-24T22:27:00.974Z,47.50
2019-01-24T22:29:33.547Z,56.53
2019-01-24T22:32:05.865Z,43.30
2019-01-24T22:34:38.160Z,50.23
2019-01-24T22:37:10.496Z,49.17
2019-01-24T22:39:43.064Z,58.33
2019-01-24T22:42:15.325Z,48.40
2019-01-24T22:44:47.443Z,48.33
2019-01-24T22:47:19.730Z,51.63
2019-01-24T22:49:52.040Z,71.70
2019-01-24T22:52:24.585Z,72.80
2019-01-24T22:54:57.098Z,58.73
2019-01-24T22:57:29.621Z,39.37
2019-01-24T23:00:02.065Z,48.80
2019-01-24T23:02:35.537Z,45.83
2019-01-24T23:05:08.023Z,47.03
2019-01-24T23:07:40.333Z,50.60
2019-01-24T23:10:12.957Z,50.13
2019-01-24T23:12:45.359Z,51.43
2019-01-24T23:15:17.862Z,53.87
2019-01-24T23:17:52.300Z,49.57
2019-01-24T23:20:25.723Z,58.30
2019-01-24T23:22:57.999Z,55.37
2019-01-24T23:25:30.207Z,57.30
2019-01-24T23:28:02.970Z,46.73
2019-01-24T23:30:36.424Z,54.60
2019-01-24T23:33:08.796Z,52.47
2019-01-24T23:35:41.158Z,45.87
2019-01-24T23:38:13.546Z,48.47
2019-01-24T23:40:46.064Z,55.57
2019-01-24T23:43:18.275Z,49.13
2019-01-24T23:45:50.591Z,54.07
2019-01-24T23:48:22.819Z,46.97
2019-01-24T23:50:56.278Z,49.90
2019-01-24T23:53:28.537Z,42.67
2019-01-24T23:56:00.973Z,60.43
2019-01-24T23:58:33.236Z,51.70
